createdAt,value
2023-02-12T00:00:33.372Z,933.49
2023-02-12T00:01:33.397Z,933.48
2023-02-12T00:02:33.441Z,933.49
2023-02-12T00:03:33.449Z,933.51
2023-02-12T00:04:33.444Z,933.50
2023-02-12T00:05:33.459Z,933.51
2023-02-12T00:06:33.471Z,933.49
2023-02-12T00:07:33.495Z,933.47
2023-02-12T00:08:33.517Z,933.49
2023-02-12T00:09:33.527Z,933.53
2023-02-12T00:10:33.532Z,933.52
2023-02-12T00:11:33.576Z,933.56
2023-02-12T00:12:33.573Z,933.59
2023-02-12T00:13:33.587Z,933.64
2023-02-12T00:14:33.604Z,933.66
2023-02-12T00:15:33.667Z,933.65
2023-02-12T00:16:33.657Z,933.69
2023-02-12T00:17:33.656Z,933.70
2023-02-12T00:18:33.674Z,933.69
2023-02-12T00:19:33.682Z,933.65
2023-02-12T00:20:33.703Z,933.69
2023-02-12T00:21:33.716Z,933.68
2023-02-12T00:22:33.726Z,933.71
2023-02-12T00:23:33.749Z,933.71
2023-02-12T00:24:33.758Z,933.67
2023-02-12T00:25:33.772Z,933.74
2023-02-12T00:26:33.795Z,933.72
2023-02-12T00:27:33.838Z,933.80
2023-02-12T00:28:33.964Z,933.76
2023-02-12T00:29:33.837Z,933.79
2023-02-12T00:30:33.893Z,933.78
2023-02-12T00:31:33.907Z,933.75
2023-02-12T00:32:33.892Z,933.75
2023-02-12T00:33:33.933Z,933.77
2023-02-12T00:34:33.925Z,933.76
2023-02-12T00:35:33.934Z,933.78
2023-02-12T00:36:33.964Z,933.80
2023-02-12T00:37:33.978Z,933.79
2023-02-12T00:38:33.989Z,933.79
2023-02-12T00:39:34.005Z,933.82
2023-02-12T00:40:34.015Z,933.83
2023-02-12T00:41:34.031Z,933.82
2023-02-12T00:42:34.046Z,933.88
2023-02-12T00:43:34.092Z,933.89
2023-02-12T00:44:34.085Z,933.88
2023-02-12T00:45:34.094Z,933.89
2023-02-12T00:46:34.214Z,933.88
2023-02-12T00:47:34.135Z,933.93
2023-02-12T00:48:34.152Z,933.92
2023-02-12T00:49:34.173Z,933.94
2023-02-12T00:50:34.184Z,933.93
2023-02-12T00:51:34.198Z,933.96
2023-02-12T00:52:34.218Z,933.97
2023-02-12T00:53:34.238Z,933.99
2023-02-12T00:54:34.246Z,933.96
2023-02-12T00:55:34.271Z,933.94
2023-02-12T00:56:34.280Z,933.95
2023-02-12T00:57:34.293Z,933.96
2023-02-12T00:58:34.303Z,933.97
2023-02-12T00:59:34.361Z,933.97
2023-02-12T01:00:34.354Z,933.97
2023-02-12T01:01:34.376Z,933.98
2023-02-12T01:02:34.369Z,933.97
2023-02-12T01:03:34.384Z,934.01
2023-02-12T01:04:34.459Z,934.00
2023-02-12T01:05:34.419Z,934.02
2023-02-12T01:06:34.433Z,933.98
2023-02-12T01:07:34.452Z,933.97
2023-02-12T01:08:34.476Z,933.94
2023-02-12T01:09:34.488Z,933.95
2023-02-12T01:10:34.513Z,933.97
2023-02-12T01:11:34.523Z,933.95
2023-02-12T01:12:34.541Z,934.00
2023-02-12T01:13:34.553Z,933.99
2023-02-12T01:14:34.570Z,934.06
2023-02-12T01:15:34.602Z,934.00
2023-02-12T01:16:34.645Z,933.99
2023-02-12T01:17:34.621Z,934.08
2023-02-12T01:18:34.627Z,934.07
2023-02-12T01:19:34.656Z,934.05
2023-02-12T01:20:34.661Z,934.04
2023-02-12T01:21:34.684Z,934.02
2023-02-12T01:22:34.698Z,934.05
2023-02-12T01:23:34.714Z,934.05
2023-02-12T01:24:34.728Z,934.04
2023-02-12T01:25:34.746Z,934.05
2023-02-12T01:26:34.763Z,934.05
2023-02-12T01:27:34.793Z,934.02
2023-02-12T01:28:34.852Z,934.00
2023-02-12T01:29:34.813Z,933.99
2023-02-12T01:30:34.827Z,933.95
2023-02-12T01:31:34.971Z,933.97
2023-02-12T01:32:34.857Z,933.95
2023-02-12T01:33:34.875Z,933.95
2023-02-12T01:34:34.884Z,934.00
2023-02-12T01:35:34.911Z,933.96
2023-02-12T01:36:34.915Z,934.00
2023-02-12T01:37:34.952Z,933.98
2023-02-12T01:38:34.956Z,934.00
2023-02-12T01:39:34.964Z,934.02
2023-02-12T01:40:34.988Z,934.00
2023-02-12T01:41:35.006Z,934.01
2023-02-12T01:42:35.019Z,934.01
2023-02-12T01:43:35.036Z,933.99
2023-02-12T01:44:35.051Z,934.01
2023-02-12T01:45:35.061Z,933.98
2023-02-12T01:46:35.178Z,933.96
2023-02-12T01:47:35.119Z,933.95
2023-02-12T01:48:35.118Z,933.90
2023-02-12T01:49:35.124Z,933.94
2023-02-12T01:50:35.147Z,933.96
2023-02-12T01:51:35.162Z,933.92
2023-02-12T01:52:35.171Z,933.92
2023-02-12T01:53:35.195Z,933.92
2023-02-12T01:54:35.223Z,933.92
2023-02-12T01:55:35.227Z,933.87
2023-02-12T01:56:35.235Z,933.91
2023-02-12T01:57:35.261Z,933.89
2023-02-12T01:58:35.273Z,933.89
2023-02-12T01:59:35.295Z,933.90
2023-02-12T02:00:35.306Z,933.88
2023-02-12T02:01:35.391Z,933.87
2023-02-12T02:02:35.331Z,933.91
2023-02-12T02:03:35.449Z,933.92
2023-02-12T02:04:35.364Z,933.92
2023-02-12T02:05:36.197Z,933.93
2023-02-12T02:06:35.413Z,933.95
2023-02-12T02:07:35.419Z,933.94
2023-02-12T02:08:35.427Z,933.95
2023-02-12T02:09:35.443Z,933.91
2023-02-12T02:10:35.466Z,933.94
2023-02-12T02:11:35.474Z,933.93
2023-02-12T02:12:35.490Z,933.91
2023-02-12T02:13:35.505Z,933.87
2023-02-12T02:14:35.526Z,933.91
2023-02-12T02:15:35.544Z,933.88
2023-02-12T02:16:35.560Z,933.89
2023-02-12T02:17:35.569Z,933.91
2023-02-12T02:18:35.587Z,933.86
2023-02-12T02:19:35.617Z,933.87
2023-02-12T02:20:35.635Z,933.89
2023-02-12T02:21:35.639Z,933.84
2023-02-12T02:22:35.656Z,933.86
2023-02-12T02:23:35.671Z,933.86
2023-02-12T02:24:35.677Z,933.86
2023-02-12T02:25:35.703Z,933.86
2023-02-12T02:26:35.713Z,933.84
2023-02-12T02:27:35.732Z,933.83
2023-02-12T02:28:35.759Z,933.83
2023-02-12T02:29:35.765Z,933.85
2023-02-12T02:30:35.864Z,933.87
2023-02-12T02:31:35.917Z,933.84
2023-02-12T02:32:35.812Z,933.83
2023-02-12T02:33:35.828Z,933.83
2023-02-12T02:34:35.839Z,933.82
2023-02-12T02:35:35.882Z,933.76
2023-02-12T02:36:35.881Z,933.75
2023-02-12T02:37:35.896Z,933.77
2023-02-12T02:38:35.904Z,933.75
2023-02-12T02:39:35.929Z,933.74
2023-02-12T02:40:35.947Z,933.72
2023-02-12T02:41:35.954Z,933.69
2023-02-12T02:42:35.963Z,933.68
2023-02-12T02:43:35.987Z,933.69
2023-02-12T02:44:35.995Z,933.66
2023-02-12T02:45:36.017Z,933.64
2023-02-12T02:46:36.087Z,933.63
2023-02-12T02:47:36.043Z,933.60
2023-02-12T02:48:36.059Z,933.59
2023-02-12T02:49:36.087Z,933.60
2023-02-12T02:50:36.099Z,933.59
2023-02-12T02:51:36.129Z,933.58
2023-02-12T02:52:36.122Z,933.55
2023-02-12T02:53:36.146Z,933.55
2023-02-12T02:54:36.154Z,933.54
2023-02-12T02:55:36.195Z,933.52
2023-02-12T02:56:36.184Z,933.50
2023-02-12T02:57:36.213Z,933.50
2023-02-12T02:58:36.219Z,933.48
2023-02-12T02:59:36.242Z,933.48
2023-02-12T03:00:36.349Z,933.49
2023-02-12T03:01:36.264Z,933.44
2023-02-12T03:02:36.299Z,933.41
2023-02-12T03:03:36.311Z,933.41
2023-02-12T03:04:36.312Z,933.39
2023-02-12T03:05:36.335Z,933.39
2023-02-12T03:06:36.358Z,933.41
2023-02-12T03:07:36.388Z,933.38
2023-02-12T03:08:36.375Z,933.37
2023-02-12T03:09:36.394Z,933.37
2023-02-12T03:10:36.407Z,933.31
2023-02-12T03:11:36.434Z,933.34
2023-02-12T03:12:36.440Z,933.32
2023-02-12T03:13:36.455Z,933.30
2023-02-12T03:14:36.478Z,933.31
2023-02-12T03:15:36.487Z,933.31
2023-02-12T03:16:36.559Z,933.27
2023-02-12T03:17:36.525Z,933.32
2023-02-12T03:18:36.564Z,933.29
2023-02-12T03:19:36.579Z,933.29
2023-02-12T03:20:36.568Z,933.31
2023-02-12T03:21:36.603Z,933.27
2023-02-12T03:22:36.600Z,933.27
2023-02-12T03:23:36.655Z,933.22
2023-02-12T03:24:36.641Z,933.22
2023-02-12T03:25:36.652Z,933.16
2023-02-12T03:26:36.665Z,933.14
2023-02-12T03:27:36.681Z,933.16
2023-02-12T03:28:36.830Z,933.16
2023-02-12T03:29:36.714Z,933.18
2023-02-12T03:30:36.772Z,933.13
2023-02-12T03:31:36.830Z,933.16
2023-02-12T03:32:36.764Z,933.15
2023-02-12T03:33:36.827Z,933.16
2023-02-12T03:34:36.800Z,933.15
2023-02-12T03:35:36.818Z,933.15
2023-02-12T03:36:36.836Z,933.16
2023-02-12T03:37:36.852Z,933.13
2023-02-12T03:38:36.923Z,933.11
2023-02-12T03:39:36.903Z,933.12
2023-02-12T03:40:36.887Z,933.13
2023-02-12T03:41:36.905Z,933.08
2023-02-12T03:42:36.928Z,933.07
2023-02-12T03:43:36.936Z,933.09
2023-02-12T03:44:36.958Z,933.07
2023-02-12T03:45:36.998Z,933.05
2023-02-12T03:46:36.991Z,933.06
2023-02-12T03:47:37.008Z,933.04
2023-02-12T03:48:37.025Z,933.03
2023-02-12T03:49:37.046Z,933.01
2023-02-12T03:50:37.054Z,933.01
2023-02-12T03:51:37.072Z,933.01
2023-02-12T03:52:37.078Z,933.04
2023-02-12T03:53:37.106Z,932.98
2023-02-12T03:54:37.108Z,933.01
2023-02-12T03:55:37.150Z,932.98
2023-02-12T03:56:37.139Z,933.01
2023-02-12T03:57:37.162Z,932.98
2023-02-12T03:58:37.178Z,932.96
2023-02-12T03:59:37.186Z,932.96
2023-02-12T04:00:37.215Z,932.92
2023-02-12T04:01:37.459Z,932.96
2023-02-12T04:02:37.234Z,932.97
2023-02-12T04:03:37.253Z,932.97
2023-02-12T04:04:37.365Z,932.95
2023-02-12T04:05:37.284Z,932.95
2023-02-12T04:06:37.303Z,932.93
2023-02-12T04:07:37.319Z,932.95
2023-02-12T04:08:37.332Z,932.90
2023-02-12T04:09:37.349Z,932.92
2023-02-12T04:10:37.362Z,932.88
2023-02-12T04:11:37.399Z,932.86
2023-02-12T04:12:37.388Z,932.81
2023-02-12T04:13:37.433Z,932.81
2023-02-12T04:14:37.430Z,932.79
2023-02-12T04:15:37.447Z,932.74
2023-02-12T04:16:38.279Z,932.76
2023-02-12T04:17:37.467Z,932.72
2023-02-12T04:18:37.486Z,932.69
2023-02-12T04:19:37.498Z,932.72
2023-02-12T04:20:37.517Z,932.69
2023-02-12T04:21:37.537Z,932.65
2023-02-12T04:22:37.555Z,932.68
2023-02-12T04:23:37.561Z,932.65
2023-02-12T04:24:37.576Z,932.62
2023-02-12T04:25:37.609Z,932.64
2023-02-12T04:26:37.617Z,932.64
2023-02-12T04:27:37.650Z,932.66
2023-02-12T04:28:37.804Z,932.63
2023-02-12T04:29:37.657Z,932.68
2023-02-12T04:30:37.805Z,932.64
2023-02-12T04:31:37.856Z,932.64
2023-02-12T04:32:37.707Z,932.61
2023-02-12T04:33:37.731Z,932.62
2023-02-12T04:34:37.740Z,932.58
2023-02-12T04:35:37.760Z,932.60
2023-02-12T04:36:37.809Z,932.59
2023-02-12T04:37:37.794Z,932.53
2023-02-12T04:38:37.816Z,932.56
2023-02-12T04:39:37.835Z,932.51
2023-02-12T04:40:37.835Z,932.55
2023-02-12T04:41:37.861Z,932.49
2023-02-12T04:42:37.874Z,932.47
2023-02-12T04:43:37.906Z,932.46
2023-02-12T04:44:37.902Z,932.47
2023-02-12T04:45:37.925Z,932.50
2023-02-12T04:46:37.939Z,932.41
2023-02-12T04:47:37.954Z,932.42
2023-02-12T04:48:38.765Z,932.42
2023-02-12T04:49:37.988Z,932.41
2023-02-12T04:50:38.001Z,932.36
2023-02-12T04:51:38.017Z,932.38
2023-02-12T04:52:38.028Z,932.33
2023-02-12T04:53:38.042Z,932.35
2023-02-12T04:54:38.058Z,932.32
2023-02-12T04:55:38.082Z,932.29
2023-02-12T04:56:38.092Z,932.25
2023-02-12T04:57:38.109Z,932.21
2023-02-12T04:58:38.127Z,932.20
2023-02-12T04:59:38.175Z,932.18
2023-02-12T05:00:38.151Z,932.16
2023-02-12T05:01:38.210Z,932.14
2023-02-12T05:02:38.184Z,932.11
2023-02-12T05:03:38.203Z,932.08
2023-02-12T05:04:38.244Z,932.05
2023-02-12T05:05:38.238Z,932.06
2023-02-12T05:06:38.254Z,932.02
2023-02-12T05:07:38.262Z,931.95
2023-02-12T05:08:38.288Z,931.94
2023-02-12T05:09:38.302Z,931.94
2023-02-12T05:10:38.321Z,931.91
2023-02-12T05:11:38.333Z,931.93
2023-02-12T05:12:38.341Z,931.93
2023-02-12T05:13:38.364Z,931.92
2023-02-12T05:14:38.420Z,931.93
2023-02-12T05:15:38.507Z,931.93
2023-02-12T05:16:38.411Z,931.89
2023-02-12T05:17:38.418Z,931.94
2023-02-12T05:18:38.443Z,931.97
2023-02-12T05:19:38.464Z,931.94
2023-02-12T05:20:38.466Z,931.96
2023-02-12T05:21:38.482Z,931.94
2023-02-12T05:22:38.498Z,931.95
2023-02-12T05:23:38.526Z,931.91
2023-02-12T05:24:38.542Z,931.89
2023-02-12T05:25:38.553Z,931.89
2023-02-12T05:26:38.577Z,931.85
2023-02-12T05:27:38.590Z,931.83
2023-02-12T05:28:38.692Z,931.80
2023-02-12T05:29:38.613Z,931.75
2023-02-12T05:30:38.648Z,931.73
2023-02-12T05:31:38.793Z,931.73
2023-02-12T05:32:38.656Z,931.71
2023-02-12T05:33:38.671Z,931.71
2023-02-12T05:34:38.695Z,931.65
2023-02-12T05:35:38.704Z,931.67
2023-02-12T05:36:38.726Z,931.65
2023-02-12T05:37:38.735Z,931.65
2023-02-12T05:38:38.757Z,931.68
2023-02-12T05:39:38.765Z,931.65
2023-02-12T05:40:38.787Z,931.66
2023-02-12T05:41:38.812Z,931.65
2023-02-12T05:42:38.819Z,931.62
2023-02-12T05:43:38.836Z,931.62
2023-02-12T05:44:38.869Z,931.63
2023-02-12T05:45:38.859Z,931.61
2023-02-12T05:46:38.984Z,931.59
2023-02-12T05:47:38.927Z,931.57
2023-02-12T05:48:38.905Z,931.57
2023-02-12T05:49:38.972Z,931.59
2023-02-12T05:50:38.943Z,931.61
2023-02-12T05:51:38.970Z,931.64
2023-02-12T05:52:38.975Z,931.66
2023-02-12T05:53:38.984Z,931.70
2023-02-12T05:54:39.009Z,931.68
2023-02-12T05:55:39.023Z,931.70
2023-02-12T05:56:39.036Z,931.69
2023-02-12T05:57:39.045Z,931.70
2023-02-12T05:58:39.069Z,931.70
2023-02-12T05:59:39.088Z,931.70
2023-02-12T06:00:39.100Z,931.72
2023-02-12T06:01:39.119Z,931.71
2023-02-12T06:02:39.219Z,931.69
2023-02-12T06:03:39.204Z,931.71
2023-02-12T06:04:39.162Z,931.71
2023-02-12T06:05:39.171Z,931.69
2023-02-12T06:06:39.194Z,931.72
2023-02-12T06:07:39.210Z,931.69
2023-02-12T06:08:39.243Z,931.68
2023-02-12T06:09:39.238Z,931.67
2023-02-12T06:10:39.252Z,931.69
2023-02-12T06:11:39.277Z,931.64
2023-02-12T06:12:39.280Z,931.66
2023-02-12T06:13:39.297Z,931.72
2023-02-12T06:14:39.315Z,931.70
2023-02-12T06:15:39.335Z,931.69
2023-02-12T06:16:39.391Z,931.68
2023-02-12T06:17:39.358Z,931.65
2023-02-12T06:18:39.381Z,931.66
2023-02-12T06:19:39.417Z,931.69
2023-02-12T06:20:39.417Z,931.67
2023-02-12T06:21:39.447Z,931.68
2023-02-12T06:22:39.450Z,931.72
2023-02-12T06:23:39.456Z,931.72
2023-02-12T06:24:39.474Z,931.69
2023-02-12T06:25:39.493Z,931.75
2023-02-12T06:26:39.501Z,931.74
2023-02-12T06:27:40.325Z,931.75
2023-02-12T06:28:39.643Z,931.72
2023-02-12T06:29:39.557Z,931.71
2023-02-12T06:30:39.567Z,931.72
2023-02-12T06:31:39.802Z,931.69
2023-02-12T06:32:39.603Z,931.66
2023-02-12T06:33:39.612Z,931.68
2023-02-12T06:34:39.627Z,931.71
2023-02-12T06:35:39.679Z,931.68
2023-02-12T06:36:39.668Z,931.69
2023-02-12T06:37:39.720Z,931.70
2023-02-12T06:38:39.700Z,931.66
2023-02-12T06:39:39.714Z,931.67
2023-02-12T06:40:39.730Z,931.70
2023-02-12T06:41:39.739Z,931.70
2023-02-12T06:42:39.755Z,931.68
2023-02-12T06:43:39.778Z,931.68
2023-02-12T06:44:39.802Z,931.72
2023-02-12T06:45:39.820Z,931.70
2023-02-12T06:46:39.997Z,931.76
2023-02-12T06:47:39.845Z,931.71
2023-02-12T06:48:39.857Z,931.69
2023-02-12T06:49:39.872Z,931.73
2023-02-12T06:50:39.881Z,931.74
2023-02-12T06:51:39.928Z,931.72
2023-02-12T06:52:39.916Z,931.73
2023-02-12T06:53:39.928Z,931.76
2023-02-12T06:54:39.951Z,931.77
2023-02-12T06:55:39.972Z,931.75
2023-02-12T06:56:39.987Z,931.73
2023-02-12T06:57:39.998Z,931.74
2023-02-12T06:58:40.029Z,931.73
2023-02-12T06:59:40.037Z,931.72
2023-02-12T07:00:40.074Z,931.72
2023-02-12T07:01:40.057Z,931.71
2023-02-12T07:02:40.078Z,931.67
2023-02-12T07:03:40.114Z,931.71
2023-02-12T07:04:40.103Z,931.72
2023-02-12T07:05:40.119Z,931.71
2023-02-12T07:06:40.158Z,931.72
2023-02-12T07:07:40.198Z,931.72
2023-02-12T07:08:40.164Z,931.72
2023-02-12T07:09:40.189Z,931.71
2023-02-12T07:10:40.198Z,931.72
2023-02-12T07:11:40.211Z,931.73
2023-02-12T07:12:40.225Z,931.73
2023-02-12T07:13:40.252Z,931.74
2023-02-12T07:14:40.268Z,931.73
2023-02-12T07:15:40.274Z,931.73
2023-02-12T07:16:40.374Z,931.74
2023-02-12T07:17:40.307Z,931.68
2023-02-12T07:18:40.332Z,931.71
2023-02-12T07:19:40.360Z,931.70
2023-02-12T07:20:40.358Z,931.70
2023-02-12T07:21:40.366Z,931.69
2023-02-12T07:22:40.390Z,931.68
2023-02-12T07:23:40.430Z,931.68
2023-02-12T07:24:40.413Z,931.67
2023-02-12T07:25:40.437Z,931.74
2023-02-12T07:26:40.448Z,931.73
2023-02-12T07:27:40.469Z,931.73
2023-02-12T07:28:40.623Z,931.78
2023-02-12T07:29:40.493Z,931.78
2023-02-12T07:30:42.570Z,931.81
2023-02-12T07:31:40.576Z,931.81
2023-02-12T07:32:40.540Z,931.81
2023-02-12T07:33:40.564Z,931.82
2023-02-12T07:34:40.577Z,931.79
2023-02-12T07:35:40.598Z,931.77
2023-02-12T07:36:40.614Z,931.77
2023-02-12T07:37:40.624Z,931.76
2023-02-12T07:38:40.632Z,931.74
2023-02-12T07:39:40.682Z,931.74
2023-02-12T07:40:40.664Z,931.74
2023-02-12T07:41:40.680Z,931.72
2023-02-12T07:42:40.696Z,931.76
2023-02-12T07:43:40.717Z,931.70
2023-02-12T07:44:40.726Z,931.73
2023-02-12T07:45:40.888Z,931.72
2023-02-12T07:46:40.773Z,931.69
2023-02-12T07:47:40.786Z,931.74
2023-02-12T07:48:40.799Z,931.79
2023-02-12T07:49:40.813Z,931.75
2023-02-12T07:50:40.843Z,931.79
2023-02-12T07:51:40.846Z,931.76
2023-02-12T07:52:40.855Z,931.78
2023-02-12T07:53:40.874Z,931.76
2023-02-12T07:54:40.892Z,931.79
2023-02-12T07:55:40.941Z,931.77
2023-02-12T07:56:40.914Z,931.75
2023-02-12T07:57:40.941Z,931.73
2023-02-12T07:58:40.956Z,931.74
2023-02-12T07:59:40.964Z,931.74
2023-02-12T08:00:40.990Z,931.74
2023-02-12T08:01:41.012Z,931.77
2023-02-12T08:02:41.066Z,931.75
2023-02-12T08:03:41.031Z,931.79
2023-02-12T08:04:41.126Z,931.77
2023-02-12T08:05:41.064Z,931.79
2023-02-12T08:06:41.082Z,931.82
2023-02-12T08:07:41.090Z,931.85
2023-02-12T08:08:41.111Z,931.85
2023-02-12T08:09:41.129Z,931.90
2023-02-12T08:10:41.137Z,931.89
2023-02-12T08:11:41.180Z,931.91
2023-02-12T08:12:41.166Z,931.94
2023-02-12T08:13:41.188Z,931.93
2023-02-12T08:14:41.212Z,931.98
2023-02-12T08:15:41.211Z,931.96
2023-02-12T08:16:41.327Z,931.98
2023-02-12T08:17:41.251Z,931.98
2023-02-12T08:18:41.265Z,931.97
2023-02-12T08:19:41.274Z,931.98
2023-02-12T08:20:41.296Z,932.00
2023-02-12T08:21:41.314Z,932.00
2023-02-12T08:22:42.133Z,932.02
2023-02-12T08:23:41.338Z,931.98
2023-02-12T08:24:41.353Z,932.01
2023-02-12T08:25:41.369Z,932.00
2023-02-12T08:26:41.395Z,932.02
2023-02-12T08:27:41.430Z,932.07
2023-02-12T08:28:41.420Z,932.08
2023-02-12T08:29:41.434Z,932.09
2023-02-12T08:30:41.476Z,932.07
2023-02-12T08:31:41.556Z,932.07
2023-02-12T08:32:41.483Z,932.10
2023-02-12T08:33:41.501Z,932.09
2023-02-12T08:34:41.508Z,932.11
2023-02-12T08:35:41.532Z,932.07
2023-02-12T08:36:41.544Z,932.10
2023-02-12T08:37:41.561Z,932.14
2023-02-12T08:38:41.593Z,932.10
2023-02-12T08:39:41.598Z,932.10
2023-02-12T08:40:41.647Z,932.13
2023-02-12T08:41:41.623Z,932.13
2023-02-12T08:42:41.640Z,932.10
2023-02-12T08:43:41.680Z,932.10
2023-02-12T08:44:41.670Z,932.10
2023-02-12T08:45:41.705Z,932.10
2023-02-12T08:46:41.694Z,932.11
2023-02-12T08:47:41.715Z,932.16
2023-02-12T08:48:41.724Z,932.15
2023-02-12T08:49:41.745Z,932.17
2023-02-12T08:50:41.760Z,932.22
2023-02-12T08:51:41.785Z,932.26
2023-02-12T08:52:43.106Z,932.26
2023-02-12T08:53:41.798Z,932.23
2023-02-12T08:54:41.814Z,932.21
2023-02-12T08:55:41.837Z,932.22
2023-02-12T08:56:41.851Z,932.21
2023-02-12T08:57:41.863Z,932.23
2023-02-12T08:58:41.885Z,932.24
2023-02-12T08:59:41.920Z,932.27
2023-02-12T09:00:41.905Z,932.29
2023-02-12T09:01:42.036Z,932.30
2023-02-12T09:02:42.001Z,932.27
2023-02-12T09:03:41.966Z,932.35
2023-02-12T09:04:41.973Z,932.37
2023-02-12T09:05:41.982Z,932.33
2023-02-12T09:06:42.004Z,932.35
2023-02-12T09:07:42.015Z,932.36
2023-02-12T09:08:42.036Z,932.38
2023-02-12T09:09:42.050Z,932.34
2023-02-12T09:10:42.071Z,932.35
2023-02-12T09:11:42.077Z,932.34
2023-02-12T09:12:42.091Z,932.36
2023-02-12T09:13:42.116Z,932.39
2023-02-12T09:14:42.129Z,932.38
2023-02-12T09:15:44.581Z,932.42
2023-02-12T09:16:42.210Z,932.43
2023-02-12T09:17:42.169Z,932.44
2023-02-12T09:18:42.192Z,932.44
2023-02-12T09:19:42.200Z,932.51
2023-02-12T09:20:42.220Z,932.51
2023-02-12T09:21:42.236Z,932.53
2023-02-12T09:22:42.247Z,932.52
2023-02-12T09:23:42.264Z,932.56
2023-02-12T09:24:42.279Z,932.53
2023-02-12T09:25:42.302Z,932.56
2023-02-12T09:26:42.322Z,932.56
2023-02-12T09:27:42.331Z,932.58
2023-02-12T09:28:42.446Z,932.55
2023-02-12T09:29:42.357Z,932.58
2023-02-12T09:30:42.407Z,932.58
2023-02-12T09:31:42.510Z,932.61
2023-02-12T09:32:42.404Z,932.62
2023-02-12T09:33:42.439Z,932.62
2023-02-12T09:34:42.442Z,932.63
2023-02-12T09:35:42.457Z,932.66
2023-02-12T09:36:42.466Z,932.66
2023-02-12T09:37:42.488Z,932.62
2023-02-12T09:38:42.504Z,932.64
2023-02-12T09:39:42.512Z,932.60
2023-02-12T09:40:42.531Z,932.63
2023-02-12T09:41:42.547Z,932.64
2023-02-12T09:42:42.565Z,932.63
2023-02-12T09:43:42.581Z,932.65
2023-02-12T09:44:42.604Z,932.70
2023-02-12T09:45:42.612Z,932.68
2023-02-12T09:46:42.664Z,932.68
2023-02-12T09:47:42.660Z,932.69
2023-02-12T09:48:42.663Z,932.70
2023-02-12T09:49:42.677Z,932.69
2023-02-12T09:50:42.690Z,932.77
2023-02-12T09:51:42.708Z,932.74
2023-02-12T09:52:42.733Z,932.72
2023-02-12T09:53:42.731Z,932.76
2023-02-12T09:54:42.747Z,932.72
2023-02-12T09:55:42.770Z,932.77
2023-02-12T09:56:42.785Z,932.73
2023-02-12T09:57:42.796Z,932.74
2023-02-12T09:58:42.815Z,932.77
2023-02-12T09:59:42.826Z,932.81
2023-02-12T10:00:42.842Z,932.80
2023-02-12T10:01:42.880Z,932.81
2023-02-12T10:02:42.881Z,932.81
2023-02-12T10:03:42.919Z,932.82
2023-02-12T10:04:58.726Z,932.83
2023-02-12T10:05:42.928Z,932.85
2023-02-12T10:06:42.946Z,932.84
2023-02-12T10:07:42.967Z,932.87
2023-02-12T10:08:42.967Z,932.87
2023-02-12T10:09:42.990Z,932.90
2023-02-12T10:10:43.010Z,932.87
2023-02-12T10:11:43.022Z,932.90
2023-02-12T10:12:43.030Z,932.93
2023-02-12T10:13:43.046Z,932.92
2023-02-12T10:14:43.065Z,932.98
2023-02-12T10:15:43.172Z,932.94
2023-02-12T10:16:43.110Z,932.94
2023-02-12T10:17:43.109Z,932.99
2023-02-12T10:18:43.124Z,932.99
2023-02-12T10:19:43.176Z,932.98
2023-02-12T10:20:43.154Z,933.04
2023-02-12T10:21:43.189Z,933.03
2023-02-12T10:22:56.103Z,933.07
2023-02-12T10:23:43.210Z,933.06
2023-02-12T10:24:43.220Z,933.08
2023-02-12T10:25:43.250Z,933.10
2023-02-12T10:26:43.265Z,933.10
2023-02-12T10:27:43.275Z,933.14
2023-02-12T10:28:43.309Z,933.21
2023-02-12T10:29:43.333Z,933.21
2023-02-12T10:30:43.360Z,933.23
2023-02-12T10:31:43.467Z,933.21
2023-02-12T10:32:43.358Z,933.21
2023-02-12T10:33:43.357Z,933.19
2023-02-12T10:34:43.371Z,933.20
2023-02-12T10:35:43.407Z,933.20
2023-02-12T10:36:43.412Z,933.20
2023-02-12T10:37:43.422Z,933.14
2023-02-12T10:38:43.797Z,933.15
2023-02-12T10:39:43.445Z,933.16
2023-02-12T10:40:43.465Z,933.14
2023-02-12T10:41:43.491Z,933.10
2023-02-12T10:42:43.498Z,933.13
2023-02-12T10:43:43.515Z,933.10
2023-02-12T10:44:43.525Z,933.08
2023-02-12T10:45:43.558Z,933.08
2023-02-12T10:46:43.699Z,933.06
2023-02-12T10:47:43.574Z,933.07
2023-02-12T10:48:43.609Z,933.06
2023-02-12T10:49:43.599Z,933.08
2023-02-12T10:50:43.621Z,933.06
2023-02-12T10:51:43.652Z,933.11
2023-02-12T10:52:43.651Z,933.07
2023-02-12T10:53:43.664Z,933.15
2023-02-12T10:54:43.675Z,933.17
2023-02-12T10:55:43.699Z,933.17
2023-02-12T10:56:43.706Z,933.19
2023-02-12T10:57:43.729Z,933.24
2023-02-12T10:58:43.747Z,933.20
2023-02-12T10:59:43.760Z,933.23
2023-02-12T11:00:43.779Z,933.23
2023-02-12T11:01:43.805Z,933.29
2023-02-12T11:02:43.806Z,933.30
2023-02-12T11:03:43.815Z,933.33
2023-02-12T11:04:43.874Z,933.35
2023-02-12T11:05:43.850Z,933.34
2023-02-12T11:06:43.868Z,933.34
2023-02-12T11:07:43.900Z,933.35
2023-02-12T11:08:43.901Z,933.38
2023-02-12T11:09:43.914Z,933.41
2023-02-12T11:10:43.923Z,933.40
2023-02-12T11:11:43.939Z,933.44
2023-02-12T11:12:43.962Z,933.43
2023-02-12T11:13:43.971Z,933.43
2023-02-12T11:14:43.992Z,933.41
2023-02-12T11:15:44.030Z,933.45
2023-02-12T11:16:44.025Z,933.43
2023-02-12T11:17:44.031Z,933.46
2023-02-12T11:18:44.048Z,933.44
2023-02-12T11:19:44.071Z,933.41
2023-02-12T11:20:44.085Z,933.44
2023-02-12T11:21:44.093Z,933.42
2023-02-12T11:22:44.117Z,933.45
2023-02-12T11:23:44.158Z,933.44
2023-02-12T11:24:44.152Z,933.42
2023-02-12T11:25:44.163Z,933.42
2023-02-12T11:26:44.171Z,933.40
2023-02-12T11:27:44.194Z,933.40
2023-02-12T11:28:44.375Z,933.40
2023-02-12T11:29:44.225Z,933.39
2023-02-12T11:30:44.259Z,933.43
2023-02-12T11:31:44.396Z,933.37
2023-02-12T11:32:44.305Z,933.41
2023-02-12T11:33:44.288Z,933.43
2023-02-12T11:34:44.305Z,933.41
2023-02-12T11:35:44.313Z,933.42
2023-02-12T11:36:44.326Z,933.44
2023-02-12T11:37:44.343Z,933.42
2023-02-12T11:38:44.358Z,933.41
2023-02-12T11:39:44.405Z,933.41
2023-02-12T11:40:44.388Z,933.41
2023-02-12T11:41:44.414Z,933.39
2023-02-12T11:42:44.428Z,933.44
2023-02-12T11:43:44.438Z,933.39
2023-02-12T11:44:44.460Z,933.38
2023-02-12T11:45:44.483Z,933.40
2023-02-12T11:46:44.512Z,933.44
2023-02-12T11:47:44.506Z,933.42
2023-02-12T11:48:44.525Z,933.44
2023-02-12T11:49:44.630Z,933.45
2023-02-12T11:50:44.563Z,933.46
2023-02-12T11:51:44.570Z,933.42
2023-02-12T11:52:44.586Z,933.47
2023-02-12T11:53:44.596Z,933.48
2023-02-12T11:54:44.617Z,933.46
2023-02-12T11:55:44.654Z,933.52
2023-02-12T11:56:44.640Z,933.50
2023-02-12T11:57:44.657Z,933.51
2023-02-12T11:58:44.678Z,933.51
2023-02-12T11:59:44.689Z,933.55
2023-02-12T12:00:44.710Z,933.51
2023-02-12T12:01:44.737Z,933.55
2023-02-12T12:02:44.758Z,933.52
2023-02-12T12:03:44.755Z,933.56
2023-02-12T12:04:44.771Z,933.55
2023-02-12T12:05:44.786Z,933.54
2023-02-12T12:06:44.795Z,933.56
2023-02-12T12:07:44.819Z,933.56
2023-02-12T12:08:44.839Z,933.56
2023-02-12T12:09:44.848Z,933.53
2023-02-12T12:10:44.868Z,933.53
2023-02-12T12:11:44.904Z,933.56
2023-02-12T12:12:44.890Z,933.49
2023-02-12T12:13:44.908Z,933.51
2023-02-12T12:14:44.926Z,933.47
2023-02-12T12:15:44.943Z,933.46
2023-02-12T12:16:44.960Z,933.47
2023-02-12T12:17:44.965Z,933.46
2023-02-12T12:18:44.991Z,933.51
2023-02-12T12:19:45.005Z,933.53
2023-02-12T12:20:45.019Z,933.56
2023-02-12T12:21:45.035Z,933.52
2023-02-12T12:22:45.074Z,933.51
2023-02-12T12:23:45.069Z,933.52
2023-02-12T12:24:45.094Z,933.51
2023-02-12T12:25:45.090Z,933.51
2023-02-12T12:26:45.114Z,933.54
2023-02-12T12:27:45.168Z,933.55
2023-02-12T12:28:45.137Z,933.56